Time;durP1;ratioP1;P1;durP2;ratioP2;P2;SDS_P1;SDS_P2;PMS_P1;PMS_P2;Temp;Humidity;BMP_temperature;BMP_pressure;BME280_temperature;BME280_humidity;BME280_pressure;Samples;Min_cycle;Max_cycle;Signal;HPM_P1;HPM_P2
2022/04/27 00:02:01;;;;;;;14.95;9.23;;;;;;;10.74;nan;100425.59;5051011;28;20040;-69
2022/04/27 00:04:28;;;;;;;12.68;8.70;;;;;;;10.69;nan;100417.59;5054006;28;20475;-69
2022/04/27 00:06:53;;;;;;;13.75;8.80;;;;;;;10.74;nan;100430.88;5047507;28;20068;-68
2022/04/27 00:09:18;;;;;;;13.07;8.63;;;;;;;10.63;nan;100429.84;5052417;28;20071;-69
2022/04/27 00:11:44;;;;;;;17.33;8.93;;;;;;;10.57;nan;100422.03;5042017;28;20044;-68
2022/04/27 00:14:10;;;;;;;15.07;9.10;;;;;;;10.50;nan;100421.31;5043778;28;20037;-69
2022/04/27 00:16:35;;;;;;;16.15;8.77;;;;;;;10.48;nan;100429.41;5052304;28;20029;-69
2022/04/27 00:19:01;;;;;;;13.23;8.32;;;;;;;10.43;nan;100434.56;5052142;28;20037;-68
2022/04/27 00:21:26;;;;;;;13.10;8.63;;;;;;;10.44;nan;100433.53;5049321;28;20116;-69
2022/04/27 00:23:52;;;;;;;11.75;7.90;;;;;;;10.45;nan;100445.66;5050306;28;20113;-67
2022/04/27 00:26:17;;;;;;;11.80;7.70;;;;;;;10.38;nan;100434.41;5050921;28;20033;-68
2022/04/27 00:28:43;;;;;;;11.32;7.95;;;;;;;10.41;nan;100461.13;5051408;28;20563;-68
2022/04/27 00:31:09;;;;;;;14.98;8.52;;;;;;;10.43;nan;100468.78;5049966;28;20083;-69
2022/04/27 00:33:34;;;;;;;14.77;9.40;;;;;;;10.21;nan;100450.78;5046506;28;20036;-69
2022/04/27 00:36:00;;;;;;;16.45;10.32;;;;;;;10.28;nan;100453.38;5050576;28;20039;-68
2022/04/27 00:38:25;;;;;;;15.60;9.43;;;;;;;10.39;nan;100463.16;5053808;28;20033;-69
2022/04/27 00:40:50;;;;;;;16.35;9.88;;;;;;;10.42;nan;100448.75;5047953;28;20047;-70
2022/04/27 00:43:33;;;;;;;15.68;10.48;;;;;;;10.41;nan;100445.31;5046683;28;20182;-69
2022/04/27 00:45:59;;;;;;;14.80;9.73;;;;;;;10.43;nan;100452.97;5051127;28;20071;-68
2022/04/27 00:48:24;;;;;;;14.55;9.60;;;;;;;10.52;nan;100453.47;5047986;28;20447;-68
2022/04/27 00:50:52;;;;;;;17.27;10.43;;;;;;;10.54;nan;100454.88;5049710;28;20033;-68
2022/04/27 00:53:17;;;;;;;14.50;9.90;;;;;;;10.53;nan;100444.53;5048014;28;20064;-68
2022/04/27 00:55:43;;;;;;;13.75;9.80;;;;;;;10.53;nan;100440.06;5052907;28;20075;-68
2022/04/27 00:58:12;;;;;;;16.83;10.18;;;;;;;10.44;nan;100428.28;5052412;28;20100;-69
2022/04/27 01:00:38;;;;;;;16.50;10.60;;;;;;;10.55;nan;100438.03;5069980;28;20033;-69
2022/04/27 01:03:03;;;;;;;17.05;9.93;;;;;;;10.59;nan;100438.41;5068616;28;20079;-69
2022/04/27 01:05:29;;;;;;;14.95;10.02;;;;;;;10.58;nan;100434.16;5069398;28;20028;-70
2022/04/27 01:07:59;;;;;;;16.83;10.88;;;;;;;10.57;nan;100435.97;5052585;28;20032;-67
2022/04/27 01:10:27;;;;;;;18.40;10.38;;;;;;;10.64;nan;100438.53;5052161;28;20040;-68
2022/04/27 01:12:54;;;;;;;17.77;10.10;;;;;;;10.59;nan;100433.94;5070454;28;20065;-69
2022/04/27 01:15:34;;;;;;;15.82;10.00;;;;;;;10.66;nan;100441.75;5069354;28;20058;-69
2022/04/27 01:18:00;;;;;;;16.60;9.70;;;;;;;10.67;nan;100442.53;5071222;28;20033;-69
2022/04/27 01:20:47;;;;;;;15.13;9.88;;;;;;;10.72;nan;100448.72;5071530;28;20486;-70
2022/04/27 01:23:14;;;;;;;14.15;10.02;;;;;;;10.71;nan;100456.88;5052345;28;20032;-70
2022/04/27 01:25:54;;;;;;;14.82;10.32;;;;;;;10.51;nan;100431.63;5069254;28;20028;-69
2022/04/27 01:28:22;;;;;;;15.82;10.15;;;;;;;10.57;nan;100440.44;5071093;28;20068;-69
2022/04/27 01:30:55;;;;;;;17.13;10.68;;;;;;;10.61;nan;100441.63;5051200;28;20394;-70
2022/04/27 01:33:21;;;;;;;13.57;9.82;;;;;;;10.66;nan;100454.91;5067918;28;20029;-68
2022/04/27 01:35:46;;;;;;;15.48;9.90;;;;;;;10.55;nan;100437.22;5069981;28;20542;-68
2022/04/27 01:38:12;;;;;;;18.20;9.98;;;;;;;10.72;nan;100469.81;5071291;28;20067;-70
2022/04/27 01:40:38;;;;;;;18.25;10.45;;;;;;;10.74;nan;100478.28;5071111;28;20040;-69
2022/04/27 01:43:04;;;;;;;13.73;9.70;;;;;;;10.74;nan;100478.28;5070091;28;20040;-67
2022/04/27 01:45:29;;;;;;;16.42;10.15;;;;;;;10.68;nan;100458.13;5069217;28;20123;-68
2022/04/27 01:47:55;;;;;;;14.20;10.30;;;;;;;10.73;nan;100475.91;5069989;28;20486;-68
2022/04/27 01:50:21;;;;;;;15.07;9.85;;;;;;;10.71;nan;100462.16;5071117;28;20056;-69
2022/04/27 01:55:30;;;;;;;17.65;10.30;;;;;;;10.71;nan;100468.22;5059205;28;20064;-68
2022/04/27 01:57:55;;;;;;;13.98;9.43;;;;;;;10.61;nan;100460.06;5051714;28;20518;-68
2022/04/27 02:00:21;;;;;;;15.85;9.80;;;;;;;10.66;nan;100481.25;5056042;28;20485;-68
2022/04/27 02:02:47;;;;;;;17.13;9.07;;;;;;;10.65;nan;100487.53;5051937;28;20589;-67
2022/04/27 02:05:13;;;;;;;16.55;10.38;;;;;;;10.59;nan;100478.69;5052184;28;20537;-68
2022/04/27 02:07:38;;;;;;;15.55;9.60;;;;;;;10.58;nan;100468.38;5071279;28;20052;-69
2022/04/27 02:10:05;;;;;;;14.50;9.82;;;;;;;10.64;nan;100476.19;5068751;28;20033;-68
2022/04/27 02:12:31;;;;;;;15.25;10.10;;;;;;;10.55;nan;100461.72;5052302;28;20496;-69
2022/04/27 02:14:56;;;;;;;15.73;9.55;;;;;;;10.34;nan;100441.97;5054090;28;20045;-70
2022/04/27 02:17:22;;;;;;;16.25;9.95;;;;;;;10.57;nan;100482.56;5061927;28;20486;-68
2022/04/27 02:19:47;;;;;;;18.40;10.10;;;;;;;10.44;nan;100446.72;5052138;28;20050;-68
2022/04/27 02:22:13;;;;;;;14.95;9.90;;;;;;;10.60;nan;100476.84;5069266;28;20482;-68
2022/04/27 02:24:38;;;;;;;16.27;9.70;;;;;;;10.58;nan;100468.38;5050418;28;20037;-69
2022/04/27 02:27:04;;;;;;;15.35;10.43;;;;;;;10.61;nan;100463.47;5051239;28;20040;-68
2022/04/27 02:29:29;;;;;;;14.52;9.57;;;;;;;10.67;nan;100485.47;5051537;28;20571;-70
2022/04/27 02:31:54;;;;;;;16.75;10.50;;;;;;;10.51;nan;100465.84;5070867;28;20795;-68
2022/04/27 02:34:20;;;;;;;16.05;10.05;;;;;;;10.58;nan;100481.53;5068943;28;20478;-69
2022/04/27 02:36:45;;;;;;;16.33;10.15;;;;;;;10.62;nan;100466.91;5055479;28;20046;-68
2022/04/27 02:39:11;;;;;;;18.35;10.73;;;;;;;10.54;nan;100460.13;5073407;28;20032;-70
2022/04/27 02:41:36;;;;;;;16.15;10.30;;;;;;;10.58;nan;100468.38;5073600;28;20127;-70
2022/04/27 02:44:02;;;;;;;14.93;10.45;;;;;;;10.57;nan;100453.63;5054982;28;20137;-69
2022/04/27 02:46:27;;;;;;;16.30;10.70;;;;;;;10.67;nan;100469.69;5072964;28;20265;-68
2022/04/27 02:51:49;;;;;;;15.98;10.93;;;;;;;10.60;nan;100450.53;5073859;28;20550;-70
2022/04/27 02:54:15;;;;;;;14.60;10.45;;;;;;;10.62;nan;100464.28;5041696;28;20089;-68
2022/04/27 02:56:42;;;;;;;15.07;10.55;;;;;;;10.67;nan;100460.97;5079311;28;20040;-68
2022/04/27 02:59:08;;;;;;;15.63;10.63;;;;;;;10.75;nan;100464.09;5085108;28;20478;-68
2022/04/27 03:01:34;;;;;;;16.40;10.80;;;;;;;10.77;nan;100477.03;5086664;28;20111;-69
2022/04/27 03:03:59;;;;;;;16.23;11.55;;;;;;;10.67;nan;100467.03;5065312;28;20036;-69
2022/04/27 03:06:25;;;;;;;17.40;11.23;;;;;;;10.72;nan;100463.75;5078349;28;20166;-68
2022/04/27 03:08:50;;;;;;;16.02;10.43;;;;;;;10.81;nan;100480.84;5078119;28;20490;-69
2022/04/27 03:11:15;;;;;;;17.00;11.02;;;;;;;10.84;nan;100486.44;5076021;28;20470;-68
2022/04/27 03:13:41;;;;;;;16.23;10.95;;;;;;;10.86;nan;100487.03;5075642;28;20032;-70
2022/04/27 03:16:06;;;;;;;15.85;10.63;;;;;;;10.78;nan;100476.81;5058714;28;20028;-68
2022/04/27 03:18:32;;;;;;;19.00;10.80;;;;;;;10.83;nan;100489.31;5077152;28;20028;-69
2022/04/27 03:20:57;;;;;;;18.63;10.98;;;;;;;10.79;nan;100491.59;5076422;28;20105;-69
2022/04/27 03:23:24;;;;;;;17.60;11.60;;;;;;;10.77;nan;100504.16;5075738;28;20041;-68
2022/04/27 03:25:49;;;;;;;17.20;10.40;;;;;;;10.57;nan;100477.31;5051592;28;20033;-71
2022/04/27 03:28:15;;;;;;;17.67;11.75;;;;;;;10.73;nan;100508.31;5073255;28;20032;-69
2022/04/27 03:30:41;;;;;;;16.77;11.23;;;;;;;10.68;nan;100502.91;5054831;28;20094;-69
2022/04/27 03:33:06;;;;;;;14.43;10.85;;;;;;;10.55;nan;100489.91;5073128;28;20035;-68
2022/04/27 03:35:32;;;;;;;14.40;10.10;;;;;;;10.52;nan;100487.72;5052821;28;20036;-68
2022/04/27 03:37:58;;;;;;;18.85;10.23;;;;;;;10.62;nan;100501.94;5073267;28;20486;-70
2022/04/27 03:40:25;;;;;;;14.38;10.07;;;;;;;10.47;nan;100484.94;5072731;28;20107;-69
2022/04/27 03:42:50;;;;;;;13.77;9.80;;;;;;;10.50;nan;100495.81;5072168;28;20041;-70
2022/04/27 03:45:16;;;;;;;14.32;9.63;;;;;;;10.46;nan;100494.66;5052753;28;20125;-68
2022/04/27 03:47:41;;;;;;;16.08;9.63;;;;;;;10.52;nan;100508.78;5045711;28;20090;-68
2022/04/27 03:50:07;;;;;;;12.70;9.13;;;;;;;10.45;nan;100505.41;5073141;28;20041;-69
2022/04/27 03:52:32;;;;;;;16.70;10.05;;;;;;;10.47;nan;100504.16;5071902;28;20456;-69
2022/04/27 03:55:00;;;;;;;21.00;9.63;;;;;;;10.44;nan;100520.41;5072571;28;20037;-68
2022/04/27 03:57:29;;;;;;;15.98;10.55;;;;;;;10.39;nan;100513.19;5051646;28;20047;-69
2022/04/27 03:59:55;;;;;;;18.02;10.57;;;;;;;10.38;nan;100506.28;5073022;28;20035;-70
2022/04/27 04:02:21;;;;;;;17.77;9.73;;;;;;;10.45;nan;100521.22;5066387;28;20037;-70
2022/04/27 04:04:47;;;;;;;14.85;9.57;;;;;;;10.47;nan;100529.69;5073168;28;20036;-68
2022/04/27 04:07:12;;;;;;;18.23;10.38;;;;;;;10.18;nan;100503.06;5070438;28;20035;-69
2022/04/27 04:09:41;;;;;;;20.80;10.73;;;;;;;10.39;nan;100549.19;5054635;28;20028;-69
2022/04/27 04:12:07;;;;;;;13.60;9.38;;;;;;;10.26;nan;100534.34;5054597;28;20043;-69
2022/04/27 04:14:33;;;;;;;14.35;9.50;;;;;;;10.27;nan;100532.50;5071313;28;20036;-69
2022/04/27 04:16:58;;;;;;;14.43;9.88;;;;;;;10.41;nan;100555.88;5070157;28;21738;-69
2022/04/27 04:19:24;;;;;;;16.35;10.05;;;;;;;10.30;nan;100535.56;5071244;28;20032;-68
2022/04/27 04:21:49;;;;;;;382.77;65.35;;;;;;;10.50;nan;100537.16;5050426;28;20410;-69
2022/04/27 04:24:15;;;;;;;22.42;15.93;;;;;;;10.79;nan;100549.53;5071985;28;20037;-69
2022/04/27 04:29:25;;;;;;;17.95;9.70;;;;;;;10.53;nan;100542.75;5069996;28;20036;-69
2022/04/27 04:31:50;;;;;;;15.18;9.27;;;;;;;10.56;nan;100550.25;5067226;28;20040;-69
2022/04/27 04:34:16;;;;;;;16.83;9.35;;;;;;;10.45;nan;100543.06;5071402;28;20147;-69
2022/04/27 04:36:41;;;;;;;17.17;9.60;;;;;;;10.53;nan;100558.56;5053270;28;20396;-69
2022/04/27 04:39:07;;;;;;;15.48;8.60;;;;;;;10.48;nan;100555.78;5071099;28;20044;-68
2022/04/27 04:41:32;;;;;;;14.40;8.95;;;;;;;10.49;nan;100554.78;5071684;28;20073;-69
2022/04/27 04:43:58;;;;;;;12.55;8.73;;;;;;;10.39;nan;100547.41;5062089;28;20040;-68
2022/04/27 04:46:23;;;;;;;14.90;9.63;;;;;;;10.43;nan;100553.81;5070629;28;20028;-70
2022/04/27 04:48:48;;;;;;;17.42;9.88;;;;;;;10.52;nan;100561.44;5070487;28;20040;-68
2022/04/27 04:51:14;;;;;;;17.52;9.73;;;;;;;10.57;nan;100572.09;5071034;28;20119;-69
2022/04/27 04:53:39;;;;;;;17.65;9.45;;;;;;;10.48;nan;100549.72;5054025;28;20032;-67
2022/04/27 04:56:05;;;;;;;15.95;9.50;;;;;;;10.58;nan;100569.25;5041983;28;20081;-70
2022/04/27 04:58:30;;;;;;;19.70;11.05;;;;;;;10.45;nan;100558.88;5034912;28;20118;-69
2022/04/27 05:00:55;;;;;;;18.38;10.50;;;;;;;10.52;nan;100571.97;5051994;28;20036;-71
2022/04/27 05:03:21;;;;;;;20.67;10.30;;;;;;;10.35;nan;100546.22;5050413;28;20119;-68
2022/04/27 05:05:46;;;;;;;16.33;10.57;;;;;;;10.52;nan;100566.69;5052552;28;20394;-69
2022/04/27 05:08:12;;;;;;;20.35;10.18;;;;;;;10.52;nan;100571.97;5052840;28;20075;-68
2022/04/27 05:10:38;;;;;;;17.35;9.48;;;;;;;10.55;nan;100566.25;5044270;28;20550;-69
2022/04/27 05:13:03;;;;;;;13.73;9.88;;;;;;;10.57;nan;100566.84;5056113;28;20092;-70
2022/04/27 05:15:29;;;;;;;13.70;9.40;;;;;;;10.68;nan;100587.19;5048080;28;20510;-68
2022/04/27 05:17:54;;;;;;;17.48;9.30;;;;;;;10.60;nan;100566.38;5049610;28;20036;-67
2022/04/27 05:20:20;;;;;;;19.42;10.32;;;;;;;10.68;nan;100581.91;5047016;28;20363;-68
2022/04/27 05:22:45;;;;;;;33.88;11.10;;;;;;;10.69;nan;100578.25;5050786;28;20032;-69
2022/04/27 05:25:11;;;;;;;15.88;10.52;;;;;;;10.81;nan;100602.00;5051983;28;20040;-69
2022/04/27 05:27:38;;;;;;;22.13;11.13;;;;;;;10.78;nan;100586.66;5051207;28;20029;-69
2022/04/27 05:32:49;;;;;;;15.63;10.48;;;;;;;10.86;nan;100587.13;5047718;28;20033;-70
2022/04/27 05:35:15;;;;;;;19.52;10.80;;;;;;;10.90;nan;100584.09;5050094;28;20043;-69
2022/04/27 05:37:41;;;;;;;26.02;10.85;;;;;;;10.99;nan;100588.00;5049182;28;20029;-67
2022/04/27 05:40:08;;;;;;;18.00;10.15;;;;;;;11.03;nan;100594.44;5050714;28;20052;-68
2022/04/27 05:42:35;;;;;;;16.38;10.32;;;;;;;11.02;nan;100584.94;5037471;28;20033;-67
2022/04/27 05:45:01;;;;;;;18.52;10.85;;;;;;;11.12;nan;100589.66;5044048;28;20037;-69
2022/04/27 05:47:26;;;;;;;20.65;11.80;;;;;;;11.14;nan;100591.03;5043848;28;20074;-70
2022/04/27 05:49:52;;;;;;;20.33;11.90;;;;;;;11.23;nan;100591.53;5047389;28;20033;-68
2022/04/27 05:52:21;;;;;;;20.13;10.48;;;;;;;11.27;nan;100595.31;5049185;28;20047;-69
2022/04/27 05:54:51;;;;;;;15.90;11.00;;;;;;;11.21;nan;100583.06;5047123;28;20402;-70
2022/04/27 05:57:19;;;;;;;13.73;10.02;;;;;;;11.15;nan;100576.81;5064595;28;20307;-69
2022/04/27 05:59:45;;;;;;;15.93;9.55;;;;;;;11.23;nan;100597.63;5045973;28;20501;-70
2022/04/27 06:02:11;;;;;;;16.25;9.82;;;;;;;11.23;nan;100600.25;5068114;28;20036;-68
2022/04/27 06:04:39;;;;;;;19.40;9.93;;;;;;;11.17;nan;100587.16;5073168;28;20127;-68
2022/04/27 06:07:07;;;;;;;19.13;9.63;;;;;;;11.19;nan;100595.66;5052180;28;20024;-70
2022/04/27 06:09:33;;;;;;;14.18;9.65;;;;;;;11.27;nan;100619.06;5055295;28;20278;-69
2022/04/27 06:12:00;;;;;;;12.27;9.52;;;;;;;11.25;nan;100614.03;5073961;28;20029;-69
2022/04/27 06:14:25;;;;;;;16.27;9.95;;;;;;;11.32;nan;100616.53;5075405;28;20012;-69
2022/04/27 06:16:51;;;;;;;20.05;9.77;;;;;;;11.34;nan;100618.97;5089557;28;20031;-68
2022/04/27 06:19:17;;;;;;;15.40;10.23;;;;;;;11.36;nan;100616.91;5091221;28;20062;-67
2022/04/27 06:21:42;;;;;;;14.02;10.13;;;;;;;11.38;nan;100609.59;5076109;28;20025;-69
2022/04/27 06:24:07;;;;;;;16.23;10.05;;;;;;;11.34;nan;100608.41;5096202;28;20083;-69
2022/04/27 06:26:33;;;;;;;15.50;10.18;;;;;;;11.42;nan;100621.28;5080243;28;20047;-68
2022/04/27 06:29:03;;;;;;;15.95;10.13;;;;;;;11.50;nan;100623.59;5092108;28;20111;-68
2022/04/27 06:31:30;;;;;;;14.82;10.00;;;;;;;11.39;nan;100595.38;5093117;28;20020;-69
2022/04/27 06:33:56;;;;;;;14.43;10.15;;;;;;;11.55;nan;100615.81;5067160;28;20032;-69
2022/04/27 06:36:22;;;;;;;15.60;10.05;;;;;;;11.49;nan;100600.88;5059885;28;20101;-69
2022/04/27 06:38:47;;;;;;;19.08;12.27;;;;;;;11.75;nan;100630.53;5075602;28;20048;-67
2022/04/27 06:41:13;;;;;;;17.58;10.50;;;;;;;11.81;nan;100627.81;5074325;28;20058;-69
2022/04/27 06:43:38;;;;;;;17.20;11.05;;;;;;;11.76;nan;100617.13;5070733;28;20040;-70
2022/04/27 06:46:03;;;;;;;13.93;10.52;;;;;;;11.88;nan;100627.72;5074292;28;20447;-69
2022/04/27 06:48:30;;;;;;;16.08;10.65;;;;;;;11.93;nan;100612.00;5065931;28;20036;-70
2022/04/27 06:50:55;;;;;;;13.65;9.95;;;;;;;12.07;nan;100636.34;5050068;28;20033;-72
2022/04/27 06:53:21;;;;;;;15.55;10.95;;;;;;;12.03;nan;100625.44;5067383;28;20033;-73
2022/04/27 06:55:48;;;;;;;15.32;10.38;;;;;;;12.15;nan;100625.44;5072267;28;20127;-73
2022/04/27 06:58:13;;;;;;;19.30;11.40;;;;;;;12.25;nan;100638.88;5050033;28;20032;-70
2022/04/27 07:00:39;;;;;;;18.63;11.05;;;;;;;12.32;nan;100633.47;5071513;28;20416;-71
2022/04/27 07:03:05;;;;;;;14.48;10.88;;;;;;;12.31;nan;100626.59;5047625;28;20047;-71
2022/04/27 07:05:31;;;;;;;16.92;10.30;;;;;;;12.40;nan;100635.75;5055594;28;20043;-72
2022/04/27 07:07:58;;;;;;;16.63;11.00;;;;;;;12.37;nan;100630.16;5054936;28;20033;-72
2022/04/27 07:10:24;;;;;;;16.08;10.82;;;;;;;12.58;nan;100657.81;5048101;28;20087;-71
2022/04/27 07:12:50;;;;;;;16.17;10.90;;;;;;;12.63;nan;100652.63;5063581;28;20061;-74
2022/04/27 07:15:15;;;;;;;16.23;10.80;;;;;;;12.64;nan;100656.88;5067884;28;20037;-72
2022/04/27 07:17:41;;;;;;;14.73;10.18;;;;;;;12.78;nan;100660.88;5049297;28;20028;-72
2022/04/27 07:20:10;;;;;;;19.30;10.95;;;;;;;12.78;nan;100650.31;5064046;28;20505;-69
2022/04/27 07:22:35;;;;;;;17.13;10.88;;;;;;;12.84;nan;100651.22;5044983;28;20174;-67
2022/04/27 07:25:01;;;;;;;21.95;10.95;;;;;;;12.85;nan;100642.25;5048671;28;20127;-70
2022/04/27 07:27:27;;;;;;;18.10;10.77;;;;;;;13.07;nan;100656.44;5054399;28;20495;-73
2022/04/27 07:29:53;;;;;;;19.70;10.50;;;;;;;13.12;nan;100645.97;5070299;28;20105;-73
2022/04/27 07:32:19;;;;;;;16.65;10.68;;;;;;;13.09;nan;100646.41;5052053;28;20036;-73
2022/04/27 07:34:44;;;;;;;16.13;11.10;;;;;;;13.24;nan;100656.50;5070807;28;20490;-73
2022/04/27 07:37:10;;;;;;;18.17;10.70;;;;;;;13.23;nan;100641.66;5067668;28;20040;-74
2022/04/27 07:39:35;;;;;;;15.98;10.77;;;;;;;13.37;nan;100645.66;5066361;28;20025;-73
2022/04/27 07:42:01;;;;;;;14.20;9.93;;;;;;;13.44;nan;100645.53;5062018;28;20446;-73
2022/04/27 07:44:26;;;;;;;21.13;10.07;;;;;;;13.57;nan;100655.78;5051876;28;20120;-71
2022/04/27 07:46:52;;;;;;;17.20;10.55;;;;;;;13.58;nan;100649.47;5052750;28;20513;-73
2022/04/27 07:49:19;;;;;;;15.60;10.93;;;;;;;13.72;nan;100655.28;5050756;28;20047;-71
2022/04/27 07:51:46;;;;;;;22.02;10.75;;;;;;;13.77;nan;100655.34;5050797;28;20036;-73
2022/04/27 07:54:12;;;;;;;21.63;10.57;;;;;;;13.92;nan;100661.94;5049368;28;20459;-73
2022/04/27 07:56:37;;;;;;;18.05;10.05;;;;;;;13.87;nan;100636.19;5064043;28;20136;-73
2022/04/27 07:59:03;;;;;;;14.27;9.77;;;;;;;;;;5073403;28;20036;-73
2022/04/27 08:01:28;;;;;;;17.58;10.30;;;;;;;;;;5074778;28;20531;-72
2022/04/27 08:03:53;;;;;;;14.77;9.45;;;;;;;;;;5074843;28;20156;-73
2022/04/27 08:06:19;;;;;;;15.45;10.00;;;;;;;;;;5076706;28;20037;-72
2022/04/27 08:08:44;;;;;;;13.47;9.33;;;;;;;;;;5051295;28;20394;-72
2022/04/27 08:11:12;;;;;;;19.90;10.00;;;;;;;;;;5050871;28;20374;-73
2022/04/27 08:13:37;;;;;;;15.50;10.65;;;;;;;;;;5051979;28;20266;-73
2022/04/27 08:16:02;;;;;;;14.60;9.87;;;;;;;;;;5071864;28;20063;-73
2022/04/27 08:18:28;;;;;;;15.75;9.15;;;;;;;;;;5054482;28;20265;-73
2022/04/27 08:23:40;;;;;;;14.25;8.02;;;;;;;;;;5065600;28;20033;-70
2022/04/27 08:26:05;;;;;;;15.98;9.15;;;;;;;;;;5059080;28;20040;-69
2022/04/27 08:28:31;;;;;;;13.10;8.70;;;;;;;;;;5069906;28;20391;-69
2022/04/27 08:30:56;;;;;;;13.48;8.70;;;;;;;;;;5071175;28;20078;-69
2022/04/27 08:33:22;;;;;;;21.42;9.55;;;;;;;;;;5062989;28;20043;-70
2022/04/27 08:35:47;;;;;;;19.33;10.20;;;;;;;;;;5071599;28;20033;-70
2022/04/27 08:38:13;;;;;;;16.58;10.07;;;;;;;;;;5074158;28;20521;-70
2022/04/27 08:40:40;;;;;;;20.30;10.85;;;;;;;;;;5053193;28;20025;-70
2022/04/27 08:43:05;;;;;;;17.48;9.77;;;;;;;;;;5071138;28;20043;-70
2022/04/27 08:45:32;;;;;;;12.48;8.95;;;;;;;16.16;nan;100684.19;5072770;28;20033;-70
2022/04/27 08:47:57;;;;;;;15.05;9.73;;;;;;;;;;5072193;28;20056;-70
2022/04/27 08:50:24;;;;;;;13.47;9.10;;;;;;;;;;5050604;28;20158;-71
2022/04/27 08:52:49;;;;;;;15.60;8.82;;;;;;;;;;5042913;28;20037;-69
2022/04/27 08:55:15;;;;;;;12.82;8.55;;;;;;;;;;5064763;28;20044;-70
2022/04/27 08:57:43;;;;;;;12.13;8.52;;;;;;;16.74;nan;100637.22;5072091;28;20044;-70
2022/04/27 09:00:09;;;;;;;14.18;9.10;;;;;;;;;;5072442;28;20040;-70
2022/04/27 09:02:35;;;;;;;14.73;8.52;;;;;;;;;;5053954;28;20433;-70
2022/04/27 09:05:09;;;;;;;17.63;8.68;;;;;;;;;;5073465;28;20078;-69
2022/04/27 09:07:44;;;;;;;14.25;8.20;;;;;;;;;;5083972;28;20123;-71
2022/04/27 09:10:11;;;;;;;14.98;9.18;;;;;;;;;;5072958;28;20036;-69
2022/04/27 09:12:47;;;;;;;12.52;8.38;;;;;;;;;;5081405;28;20029;-70
2022/04/27 09:15:14;;;;;;;13.45;6.75;;;;;;;;;;5071647;28;20506;-70
2022/04/27 09:23:19;;;;;;;27.05;7.65;;;;;;;;;;5072305;28;20478;-71
2022/04/27 09:25:45;;;;;;;15.93;6.80;;;;;;;;;;5070844;28;20029;-71
2022/04/27 09:28:10;;;;;;;12.75;6.15;;;;;;;;;;5050854;28;20039;-69
2022/04/27 09:30:35;;;;;;;13.38;5.15;;;;;;;;;;5084942;28;20058;-70
2022/04/27 09:33:01;;;;;;;11.80;5.35;;;;;;;;;;5053177;28;20070;-71
2022/04/27 09:35:44;;;;;;;8.77;5.35;;;;;;;17.48;nan;100648.63;5071810;28;20063;-68
2022/04/27 09:38:18;;;;;;;8.43;4.72;;;;;;;17.48;nan;100607.88;5071622;28;20474;-69
2022/04/27 09:40:44;;;;;;;9.95;4.70;;;;;;;;;;5071962;28;20039;-69
2022/04/27 09:43:12;;;;;;;10.82;4.80;;;;;;;;;;5071148;28;20036;-69
2022/04/27 09:45:37;;;;;;;10.65;5.55;;;;;;;;;;5052728;28;20070;-69
2022/04/27 09:48:06;;;;;;;10.93;4.20;;;;;;;;;;5071471;28;20556;-71
2022/04/27 09:50:50;;;;;;;10.98;4.20;;;;;;;17.71;nan;100588.72;5052908;28;20036;-69
2022/04/27 09:53:16;;;;;;;9.88;4.28;;;;;;;;;;5071574;28;20032;-68
2022/04/27 09:55:48;;;;;;;8.73;4.10;;;;;;;;;;5050013;28;20068;-70
2022/04/27 09:58:15;;;;;;;7.88;4.30;;;;;;;;;;5038259;28;20044;-70
2022/04/27 10:00:44;;;;;;;7.40;4.10;;;;;;;;;;5082612;28;20119;-70
2022/04/27 10:03:19;;;;;;;5.50;4.00;;;;;;;18.26;nan;100604.91;5063162;28;20600;-70
2022/04/27 10:05:45;;;;;;;5.18;3.90;;;;;;;18.24;nan;100580.38;5073448;28;20071;-69
2022/04/27 10:08:11;;;;;;;5.85;3.80;;;;;;;18.32;nan;100587.03;5053858;28;20083;-70
2022/04/27 10:10:41;;;;;;;9.07;3.42;;;;;;;18.41;nan;100596.03;5071765;28;20048;-70
2022/04/27 10:13:12;;;;;;;6.40;3.50;;;;;;;18.44;nan;100576.84;5052584;28;20024;-69
2022/04/27 10:15:46;;;;;;;7.85;4.32;;;;;;;18.63;nan;100577.03;5055662;28;20041;-70
2022/04/27 10:18:17;;;;;;;6.45;4.10;;;;;;;18.85;nan;100579.34;5084935;28;20024;-69
2022/04/27 10:20:43;;;;;;;7.30;3.53;;;;;;;;;;5107282;28;20017;-70
2022/04/27 10:23:24;;;;;;;6.63;3.50;;;;;;;19.09;nan;100574.94;5075407;28;20036;-67
2022/04/27 10:26:16;;;;;;;7.22;3.60;;;;;;;19.26;nan;100587.91;5075179;28;20040;-69
2022/04/27 10:28:50;;;;;;;4.43;2.78;;;;;;;19.18;nan;100585.81;5091371;28;20031;-70
2022/04/27 10:31:40;;;;;;;7.00;3.13;;;;;;;19.19;nan;100595.41;5092166;28;20029;-70
2022/04/27 10:34:22;;;;;;;3.25;2.80;;;;;;;19.20;nan;100580.19;5077146;28;20020;-70
2022/04/27 10:36:58;;;;;;;4.35;2.08;;;;;;;19.28;nan;100604.44;5057009;28;20033;-70
2022/04/27 10:39:27;;;;;;;4.15;2.08;;;;;;;19.34;nan;100583.81;5085223;28;20032;-71
2022/04/27 10:41:54;;;;;;;;;;;;;;;19.30;nan;100575.59;5078049;28;20029;-67
2022/04/27 10:44:20;;;;;;;4.47;1.85;;;;;;;19.25;nan;100577.47;5094384;28;19901;-76
2022/04/27 10:46:45;;;;;;;3.83;2.50;;;;;;;19.11;nan;100554.09;5093022;28;20036;-73
2022/04/27 10:49:24;;;;;;;6.78;3.13;;;;;;;19.22;nan;100546.00;5088062;28;20371;-70
2022/04/27 10:52:07;;;;;;;4.15;2.70;;;;;;;19.33;nan;100569.69;5072834;28;20048;-69
2022/04/27 10:54:34;;;;;;;6.47;2.58;;;;;;;19.35;nan;100569.41;5076429;28;20426;-71
2022/04/27 10:57:15;;;;;;;4.32;2.10;;;;;;;19.41;nan;100578.97;5077079;28;20044;-69
2022/04/27 10:59:56;;;;;;;6.43;2.65;;;;;;;19.40;nan;100555.22;5079087;28;20039;-70
2022/04/27 11:02:49;;;;;;;3.67;2.60;;;;;;;19.42;nan;100559.22;5072116;28;20158;-69
2022/04/27 11:05:14;;;;;;;4.63;2.40;;;;;;;19.42;nan;100555.72;5053920;28;20036;-69
2022/04/27 11:08:15;;;;;;;5.85;1.80;;;;;;;19.40;nan;100569.38;5057570;28;20509;-71
2022/04/27 11:10:41;;;;;;;3.47;2.10;;;;;;;;;;5054964;28;20037;-69
2022/04/27 11:13:08;;;;;;;4.20;2.10;;;;;;;19.49;nan;100486.75;5075154;28;20048;-69
2022/04/27 11:15:34;;;;;;;3.78;2.50;;;;;;;19.59;nan;100606.09;5084431;28;20028;-71
2022/04/27 11:18:01;;;;;;;2.58;2.08;;;;;;;19.60;nan;100549.69;5059395;28;20487;-68
2022/04/27 11:20:31;;;;;;;2.22;1.77;;;;;;;19.62;nan;100568.91;5055720;28;20033;-73
2022/04/27 11:22:57;;;;;;;2.70;1.80;;;;;;;19.76;nan;100607.28;5036953;28;20079;-73
2022/04/27 11:25:31;;;;;;;2.40;1.95;;;;;;;19.84;nan;100555.09;5073302;28;20028;-73
2022/04/27 11:27:59;;;;;;;4.20;1.63;;;;;;;19.87;nan;100557.22;5056688;28;20028;-68
2022/04/27 11:30:25;;;;;;;3.70;2.03;;;;;;;19.99;nan;100591.56;5073968;28;20048;-69
2022/04/27 11:32:52;;;;;;;4.68;2.60;;;;;;;20.17;nan;100561.44;5055324;28;20082;-70
2022/04/27 11:35:23;;;;;;;4.53;2.95;;;;;;;20.28;nan;100542.59;5067644;28;20036;-70
2022/04/27 11:37:49;;;;;;;5.63;2.60;;;;;;;;;;5064357;28;20398;-71
2022/04/27 11:40:17;;;;;;;4.97;3.00;;;;;;;20.43;nan;100582.53;5054896;28;20036;-71
2022/04/27 11:42:47;;;;;;;3.28;2.60;;;;;;;20.54;nan;100530.50;5057923;28;20111;-70
2022/04/27 11:45:22;;;;;;;6.28;2.70;;;;;;;;;;5073916;28;20059;-68
2022/04/27 11:48:03;;;;;;;6.15;2.90;;;;;;;20.79;nan;100598.16;5054107;28;20131;-70
2022/04/27 11:50:32;;;;;;;4.03;2.80;;;;;;;;;;5073321;28;20107;-70
2022/04/27 11:53:07;;;;;;;4.20;2.40;;;;;;;20.93;nan;100534.00;5053731;28;20036;-69
2022/04/27 11:55:34;;;;;;;6.95;2.40;;;;;;;21.02;nan;100524.19;5051263;28;20036;-68
2022/04/27 11:58:01;;;;;;;4.15;3.10;;;;;;;21.07;nan;100536.72;5052995;28;20056;-70
2022/04/27 12:00:31;;;;;;;2.38;2.05;;;;;;;21.19;nan;100543.22;5066577;28;20046;-68
2022/04/27 12:03:07;;;;;;;6.30;2.40;;;;;;;21.20;nan;100528.75;5072973;28;20033;-70
2022/04/27 12:05:41;;;;;;;4.30;3.05;;;;;;;21.11;nan;100517.09;5087156;28;20094;-69
2022/04/27 12:08:42;;;;;;;4.18;3.17;;;;;;;21.15;nan;100525.34;5074022;28;20032;-68
2022/04/27 12:11:25;;;;;;;4.75;2.80;;;;;;;21.25;nan;100538.56;5073662;28;20032;-69
2022/04/27 12:13:55;;;;;;;6.40;3.10;;;;;;;21.27;nan;100528.38;5054537;28;20115;-71
2022/04/27 12:16:21;;;;;;;5.25;3.55;;;;;;;21.27;nan;100565.88;5061721;28;20059;-73
2022/04/27 12:18:50;;;;;;;4.68;2.80;;;;;;;21.23;nan;100520.09;5073119;28;20036;-73